createdAt,value
2022-09-28T00:01:57.916Z,91.30
2022-09-28T00:04:24.393Z,91.77
2022-09-28T00:06:50.769Z,91.57
2022-09-28T00:09:17.770Z,91.66
2022-09-28T00:11:45.997Z,91.49
2022-09-28T00:14:12.846Z,91.68
2022-09-28T00:16:43.454Z,91.66
2022-09-28T00:19:10.961Z,91.90
2022-09-28T00:21:43.056Z,91.77
2022-09-28T00:24:17.293Z,91.79
2022-09-28T00:26:54.643Z,91.48
2022-09-28T00:29:32.278Z,91.75
2022-09-28T00:32:21.511Z,91.77
2022-09-28T00:34:48.882Z,91.92
2022-09-28T00:37:15.309Z,91.78
2022-09-28T00:39:41.766Z,91.61
2022-09-28T00:42:21.834Z,91.76
2022-09-28T00:44:56.102Z,91.90
2022-09-28T00:47:37.885Z,91.82
2022-09-28T00:50:09.272Z,92.16
2022-09-28T00:53:00.565Z,91.88
2022-09-28T00:55:33.667Z,92.01
2022-09-28T00:58:01.804Z,92.05
2022-09-28T01:00:28.409Z,92.13
2022-09-28T01:02:54.875Z,92.23
2022-09-28T01:05:22.377Z,92.16
2022-09-28T01:07:48.768Z,92.15
2022-09-28T01:10:15.331Z,92.15
2022-09-28T01:12:41.677Z,92.33
2022-09-28T01:15:08.362Z,91.71
2022-09-28T01:17:37.521Z,91.88
2022-09-28T01:20:22.465Z,92.04
2022-09-28T01:23:19.038Z,92.08
2022-09-28T01:25:55.818Z,92.04
2022-09-28T01:28:26.297Z,91.96
2022-09-28T01:31:05.475Z,92.15
2022-09-28T01:33:38.251Z,92.11
2022-09-28T01:36:27.715Z,92.14
2022-09-28T01:39:03.332Z,92.26
2022-09-28T01:41:31.525Z,92.22
2022-09-28T01:44:02.808Z,92.38
2022-09-28T01:46:34.446Z,92.32
2022-09-28T01:49:16.474Z,92.30
2022-09-28T01:52:06.811Z,92.24
2022-09-28T01:54:44.352Z,92.43
2022-09-28T01:57:16.761Z,92.27
2022-09-28T01:59:49.564Z,92.33
2022-09-28T02:02:18.821Z,92.41
2022-09-28T02:04:52.308Z,92.52
2022-09-28T02:07:32.141Z,92.23
2022-09-28T02:10:02.888Z,92.55
2022-09-28T02:12:43.534Z,92.58
2022-09-28T02:15:20.662Z,92.54
2022-09-28T02:17:47.471Z,92.22
2022-09-28T02:20:14.020Z,92.78
2022-09-28T02:22:51.327Z,92.67
2022-09-28T02:25:39.188Z,92.54
2022-09-28T02:28:07.284Z,92.64
2022-09-28T02:30:36.419Z,92.62
2022-09-28T02:33:11.077Z,92.33
2022-09-28T02:35:40.357Z,92.35
2022-09-28T02:38:06.913Z,92.37
2022-09-28T02:40:34.859Z,92.45
2022-09-28T02:43:23.799Z,92.33
2022-09-28T02:46:34.392Z,92.33
2022-09-28T02:49:22.154Z,92.69
2022-09-28T02:52:04.289Z,92.55
2022-09-28T02:54:58.173Z,92.53
2022-09-28T02:58:01.534Z,92.19
2022-09-28T03:00:32.845Z,92.29
2022-09-28T03:03:08.103Z,92.53
2022-09-28T03:05:45.968Z,92.50
2022-09-28T03:08:30.428Z,92.21
2022-09-28T03:11:10.275Z,92.52
2022-09-28T03:13:37.073Z,92.51
2022-09-28T03:16:15.277Z,92.31
2022-09-28T03:18:41.690Z,92.54
2022-09-28T03:21:09.570Z,92.53
2022-09-28T03:23:36.006Z,92.54
2022-09-28T03:26:03.755Z,92.85
2022-09-28T03:28:30.298Z,92.86
2022-09-28T03:30:56.878Z,92.88
2022-09-28T03:33:23.340Z,93.27
2022-09-28T03:35:50.576Z,92.88
2022-09-28T03:38:20.661Z,92.98
2022-09-28T03:41:02.869Z,93.04
2022-09-28T03:43:31.123Z,93.05
2022-09-28T03:45:59.797Z,93.39
2022-09-28T03:48:36.116Z,93.02
2022-09-28T03:51:04.155Z,93.04
2022-09-28T03:53:30.608Z,92.81
2022-09-28T03:56:05.584Z,92.70
2022-09-28T03:58:33.260Z,92.55
2022-09-28T04:01:05.049Z,92.58
2022-09-28T04:03:31.724Z,92.67
2022-09-28T04:05:58.367Z,92.60
2022-09-28T04:08:25.183Z,92.70
2022-09-28T04:10:51.660Z,92.81
2022-09-28T04:13:21.033Z,92.50
2022-09-28T04:15:53.272Z,92.95
2022-09-28T04:18:23.602Z,93.26
2022-09-28T04:21:06.490Z,93.16
2022-09-28T04:23:34.572Z,93.25
2022-09-28T04:26:01.460Z,92.99
2022-09-28T04:28:46.906Z,92.83
2022-09-28T04:31:17.064Z,92.99
2022-09-28T04:33:43.699Z,92.91
2022-09-28T04:36:10.973Z,92.82
2022-09-28T04:38:55.246Z,93.00
2022-09-28T04:41:22.504Z,92.96
2022-09-28T04:43:49.609Z,93.04
2022-09-28T04:46:16.430Z,93.11
2022-09-28T04:48:45.645Z,93.32
2022-09-28T04:51:12.036Z,93.24
2022-09-28T04:53:38.474Z,92.90
2022-09-28T04:56:07.489Z,92.86
2022-09-28T04:58:37.495Z,92.63
2022-09-28T05:01:08.326Z,92.70
2022-09-28T05:03:34.791Z,92.91
2022-09-28T05:06:01.529Z,93.29
2022-09-28T05:08:27.918Z,93.15
2022-09-28T05:11:01.979Z,93.11
2022-09-28T05:13:28.904Z,93.06
2022-09-28T05:15:59.694Z,92.82
2022-09-28T05:18:28.217Z,92.83
2022-09-28T05:20:54.645Z,93.06
2022-09-28T05:23:21.004Z,93.04
2022-09-28T05:25:47.388Z,93.00
2022-09-28T05:28:13.907Z,93.31
2022-09-28T05:30:42.916Z,93.21
2022-09-28T05:33:09.570Z,93.55
2022-09-28T05:35:39.446Z,93.41
2022-09-28T05:38:05.817Z,93.39
2022-09-28T05:40:32.509Z,93.19
2022-09-28T05:43:01.136Z,93.39
2022-09-28T05:45:29.003Z,93.56
2022-09-28T05:47:56.608Z,93.44
2022-09-28T05:50:23.387Z,93.44
2022-09-28T05:53:03.801Z,93.49
2022-09-28T05:55:30.541Z,93.49
2022-09-28T05:58:06.154Z,93.19
2022-09-28T06:00:33.443Z,93.41
2022-09-28T06:03:05.395Z,93.39
2022-09-28T06:05:36.093Z,93.34
2022-09-28T06:08:05.061Z,93.34
2022-09-28T06:10:32.219Z,93.48
2022-09-28T06:12:59.383Z,93.49
2022-09-28T06:15:27.976Z,93.37
2022-09-28T06:18:02.102Z,93.23
2022-09-28T06:20:31.040Z,93.33
2022-09-28T06:22:57.458Z,93.30
2022-09-28T06:25:27.440Z,93.06
2022-09-28T06:27:57.451Z,93.18
2022-09-28T06:30:27.001Z,93.24
2022-09-28T06:32:55.040Z,93.27
2022-09-28T06:35:22.239Z,93.33
2022-09-28T06:37:48.773Z,93.18
2022-09-28T06:40:15.341Z,93.86
2022-09-28T06:42:41.821Z,93.54
2022-09-28T06:45:08.544Z,93.35
2022-09-28T06:47:35.169Z,93.18
2022-09-28T06:50:01.557Z,93.40
2022-09-28T06:52:27.913Z,93.48
2022-09-28T06:54:54.269Z,93.10
2022-09-28T06:57:20.697Z,93.24
2022-09-28T06:59:47.061Z,93.21
2022-09-28T07:02:16.410Z,93.19
2022-09-28T07:04:43.259Z,92.92
2022-09-28T07:07:11.396Z,92.99
2022-09-28T07:09:42.234Z,92.82
2022-09-28T07:12:13.314Z,92.42
2022-09-28T07:14:47.711Z,92.42
2022-09-28T07:17:15.082Z,92.45
2022-09-28T07:19:41.897Z,92.41
2022-09-28T07:22:08.266Z,92.32
2022-09-28T07:24:34.630Z,91.92
2022-09-28T07:27:04.424Z,91.96
2022-09-28T07:29:30.799Z,91.57
2022-09-28T07:31:57.162Z,91.66
2022-09-28T07:34:23.934Z,91.45
2022-09-28T07:36:51.907Z,91.18
2022-09-28T07:39:18.260Z,90.72
2022-09-28T07:41:44.658Z,90.71
2022-09-28T07:44:11.203Z,90.37
2022-09-28T07:46:38.037Z,90.10
2022-09-28T07:49:10.014Z,89.82
2022-09-28T07:51:38.899Z,89.10
2022-09-28T07:54:06.484Z,89.29
2022-09-28T07:56:34.834Z,88.49
2022-09-28T07:59:01.265Z,88.37
2022-09-28T08:01:27.980Z,88.20
2022-09-28T08:03:56.117Z,87.74
2022-09-28T08:06:23.193Z,87.31
2022-09-28T08:08:50.285Z,87.27
2022-09-28T08:11:20.490Z,86.73
2022-09-28T08:13:48.133Z,86.45
2022-09-28T08:16:14.706Z,86.08
2022-09-28T08:18:41.150Z,85.62
2022-09-28T08:21:26.112Z,85.61
2022-09-28T08:23:53.063Z,85.45
2022-09-28T08:26:29.072Z,84.83
2022-09-28T08:29:20.735Z,84.04
2022-09-28T08:32:01.538Z,84.37
2022-09-28T08:34:28.872Z,83.27
2022-09-28T08:36:59.075Z,83.14
2022-09-28T08:39:25.727Z,82.58
2022-09-28T08:42:17.281Z,81.27
2022-09-28T08:44:47.081Z,80.76
2022-09-28T08:47:35.052Z,79.20
2022-09-28T08:50:03.538Z,80.19
2022-09-28T08:52:40.093Z,79.11
2022-09-28T08:55:31.619Z,78.08
2022-09-28T08:58:02.897Z,79.57
2022-09-28T09:00:38.087Z,77.26
2022-09-28T09:03:11.510Z,76.48
2022-09-28T09:06:06.604Z,76.89
2022-09-28T09:08:57.434Z,76.55
2022-09-28T09:11:34.154Z,76.39
2022-09-28T09:14:38.578Z,72.89
2022-09-28T09:17:32.232Z,70.11
2022-09-28T09:20:16.866Z,70.08
2022-09-28T09:23:20.806Z,70.02
2022-09-28T09:25:48.689Z,70.94
2022-09-28T09:28:43.538Z,69.37
2022-09-28T09:31:22.901Z,68.59
2022-09-28T09:34:15.651Z,69.87
2022-09-28T09:37:03.380Z,70.67
2022-09-28T09:39:45.487Z,70.19
2022-09-28T09:42:22.046Z,68.88
2022-09-28T09:45:00.626Z,67.03
2022-09-28T09:47:42.882Z,65.99
2022-09-28T09:50:16.290Z,68.15
2022-09-28T09:52:57.075Z,66.58
2022-09-28T09:55:44.223Z,67.17
2022-09-28T09:58:38.905Z,64.84
2022-09-28T10:01:13.232Z,66.53
2022-09-28T10:03:44.512Z,67.90
2022-09-28T10:06:27.445Z,63.33
2022-09-28T10:09:12.442Z,65.52
2022-09-28T10:11:49.809Z,64.36
2022-09-28T10:14:17.458Z,65.44
2022-09-28T10:16:44.892Z,65.73
2022-09-28T10:19:13.162Z,66.51
2022-09-28T10:21:41.170Z,67.33
2022-09-28T10:24:15.146Z,68.01
2022-09-28T10:26:44.364Z,69.44
2022-09-28T10:29:56.653Z,69.84
2022-09-28T10:32:28.001Z,65.01
2022-09-28T10:35:12.432Z,65.92
2022-09-28T10:38:06.187Z,64.46
2022-09-28T10:40:56.122Z,64.36
2022-09-28T10:43:35.668Z,64.44
2022-09-28T10:46:06.029Z,64.59
2022-09-28T10:48:49.881Z,64.97
2022-09-28T10:51:16.300Z,63.22
2022-09-28T10:53:42.788Z,63.84
2022-09-28T10:56:20.957Z,62.74
2022-09-28T10:58:47.390Z,64.12
2022-09-28T11:01:19.605Z,64.66
2022-09-28T11:03:55.145Z,65.53
2022-09-28T11:06:41.727Z,65.61
2022-09-28T11:09:29.691Z,62.93
2022-09-28T11:11:58.273Z,64.99
2022-09-28T11:14:39.613Z,62.83
2022-09-28T11:17:40.391Z,62.39
2022-09-28T11:20:27.937Z,62.33
2022-09-28T11:22:54.693Z,60.68
2022-09-28T11:25:26.912Z,60.67
2022-09-28T11:27:53.186Z,62.54
2022-09-28T11:30:23.949Z,61.38
2022-09-28T11:32:50.880Z,61.65
2022-09-28T11:35:24.911Z,61.06
2022-09-28T11:38:07.304Z,60.61
2022-09-28T11:41:23.233Z,60.95
2022-09-28T11:43:55.595Z,61.79
2022-09-28T11:46:37.206Z,61.23
2022-09-28T11:49:11.387Z,61.70
2022-09-28T11:51:40.317Z,62.48
2022-09-28T11:54:18.648Z,64.26
2022-09-28T11:56:48.027Z,63.51
2022-09-28T11:59:31.576Z,64.82
2022-09-28T12:02:02.105Z,67.15
2022-09-28T12:04:33.225Z,68.67
2022-09-28T12:07:11.286Z,71.92
2022-09-28T12:09:50.542Z,74.82
2022-09-28T12:12:43.771Z,73.17
2022-09-28T12:15:17.132Z,73.66
2022-09-28T12:17:48.457Z,74.13
2022-09-28T12:20:30.695Z,73.56
2022-09-28T12:23:00.103Z,73.99
2022-09-28T12:25:28.676Z,74.64
2022-09-28T12:28:01.542Z,73.96
2022-09-28T12:30:33.499Z,74.91
2022-09-28T12:33:09.185Z,76.05
2022-09-28T12:36:09.689Z,76.63
2022-09-28T12:38:54.135Z,78.16
2022-09-28T12:41:42.372Z,78.28
2022-09-28T12:44:29.090Z,79.26
2022-09-28T12:47:05.976Z,78.85
2022-09-28T12:50:36.303Z,78.83
2022-09-28T12:52:47.375Z,79.25
2022-09-28T12:55:22.999Z,78.85
2022-09-28T12:58:21.568Z,79.15
2022-09-28T13:01:14.224Z,79.63
2022-09-28T13:03:49.784Z,78.22
2022-09-28T13:06:34.875Z,78.87
2022-09-28T13:09:12.308Z,77.95
2022-09-28T13:12:03.501Z,77.25
2022-09-28T13:14:49.015Z,75.83
2022-09-28T13:17:42.512Z,71.41
2022-09-28T13:20:23.329Z,64.38
2022-09-28T13:22:54.679Z,65.36
2022-09-28T13:25:22.054Z,62.34
2022-09-28T13:27:53.512Z,56.52
2022-09-28T13:30:20.104Z,55.89
2022-09-28T13:32:47.475Z,57.46
2022-09-28T13:35:15.195Z,54.49
2022-09-28T13:37:41.651Z,57.89
2022-09-28T13:40:08.326Z,60.65
2022-09-28T13:42:53.821Z,63.31
2022-09-28T13:45:20.120Z,64.04
2022-09-28T13:48:21.966Z,64.79
2022-09-28T13:51:09.635Z,67.73
2022-09-28T13:54:03.762Z,68.01
2022-09-28T13:56:52.764Z,69.61
2022-09-28T13:59:27.665Z,70.33
2022-09-28T14:02:09.407Z,69.62
2022-09-28T14:04:57.797Z,70.71
2022-09-28T14:10:16.609Z,73.14
2022-09-28T14:12:51.791Z,72.86
2022-09-28T14:15:30.271Z,72.12
2022-09-28T14:18:24.121Z,73.13
2022-09-28T14:21:29.497Z,72.85
2022-09-28T14:24:18.852Z,73.77
2022-09-28T14:27:03.080Z,74.03
2022-09-28T14:29:36.139Z,75.52
2022-09-28T14:32:22.437Z,74.37
2022-09-28T14:34:59.102Z,74.77
2022-09-28T14:37:56.363Z,76.03
2022-09-28T14:40:49.949Z,77.05
2022-09-28T14:43:24.348Z,77.61
2022-09-28T14:45:53.442Z,77.99
2022-09-28T14:48:21.889Z,77.71
2022-09-28T14:50:49.872Z,78.94
2022-09-28T14:53:22.049Z,79.17
2022-09-28T14:55:55.648Z,79.88
2022-09-28T14:58:25.562Z,79.54
2022-09-28T15:00:54.713Z,81.90
2022-09-28T15:03:21.759Z,81.41
2022-09-28T15:05:49.231Z,82.12
2022-09-28T15:08:20.198Z,83.45
2022-09-28T15:10:48.673Z,83.03
2022-09-28T15:13:21.283Z,83.49
2022-09-28T15:15:50.764Z,83.68
2022-09-28T15:18:27.480Z,85.47
2022-09-28T15:20:54.164Z,84.37
2022-09-28T15:23:34.423Z,84.84
2022-09-28T15:26:01.025Z,85.15
2022-09-28T15:28:27.396Z,84.07
2022-09-28T15:31:01.787Z,84.73
2022-09-28T15:33:51.969Z,84.10
2022-09-28T15:36:21.843Z,84.40
2022-09-28T15:38:59.044Z,86.28
2022-09-28T15:41:25.988Z,84.42
2022-09-28T15:44:08.333Z,84.58
2022-09-28T15:46:36.555Z,84.35
2022-09-28T15:49:04.675Z,84.29
2022-09-28T15:51:32.382Z,84.37
2022-09-28T15:54:04.106Z,83.68
2022-09-28T15:56:31.492Z,83.74
2022-09-28T15:59:13.142Z,83.68
2022-09-28T16:01:41.118Z,84.20
2022-09-28T16:04:33.592Z,84.13
2022-09-28T16:07:20.988Z,84.35
2022-09-28T16:10:12.811Z,84.32
2022-09-28T16:12:54.145Z,83.82
2022-09-28T16:15:26.616Z,83.89
2022-09-28T16:18:00.533Z,84.22
2022-09-28T16:20:29.384Z,84.73
2022-09-28T16:22:57.614Z,85.83
2022-09-28T16:25:26.013Z,83.92
2022-09-28T16:27:54.993Z,83.59
2022-09-28T16:30:29.988Z,82.73
2022-09-28T16:32:56.426Z,83.30
2022-09-28T16:35:32.701Z,83.68
2022-09-28T16:38:16.380Z,83.28
2022-09-28T16:40:52.561Z,83.76
2022-09-28T16:43:26.889Z,85.30
2022-09-28T16:46:02.031Z,84.91
2022-09-28T16:48:30.637Z,84.87
2022-09-28T16:50:57.839Z,84.92
2022-09-28T16:53:43.784Z,84.84
2022-09-28T16:56:10.765Z,85.22
2022-09-28T16:58:38.979Z,85.78
2022-09-28T17:01:09.409Z,85.82
2022-09-28T17:03:35.994Z,86.33
2022-09-28T17:06:08.701Z,86.29
2022-09-28T17:08:35.603Z,86.69
2022-09-28T17:11:22.853Z,86.73
2022-09-28T17:13:48.683Z,87.41
2022-09-28T17:16:18.290Z,87.49
2022-09-28T17:18:45.908Z,87.31
2022-09-28T17:21:15.780Z,87.17
2022-09-28T17:23:46.367Z,87.13
2022-09-28T17:26:23.200Z,87.44
2022-09-28T17:28:49.677Z,87.93
2022-09-28T17:31:16.546Z,87.72
2022-09-28T17:33:43.491Z,87.98
2022-09-28T17:36:13.235Z,88.11
2022-09-28T17:38:39.971Z,88.00
2022-09-28T17:41:06.359Z,88.13
2022-09-28T17:43:32.749Z,87.94
2022-09-28T17:45:59.409Z,88.34
2022-09-28T17:48:25.781Z,88.34
2022-09-28T17:50:52.157Z,87.62
2022-09-28T17:53:18.621Z,88.05
2022-09-28T17:55:44.986Z,88.06
2022-09-28T17:58:18.552Z,87.67
2022-09-28T18:00:51.493Z,88.32
2022-09-28T18:03:20.275Z,88.36
2022-09-28T18:05:58.201Z,88.21
2022-09-28T18:08:24.688Z,88.69
2022-09-28T18:10:51.159Z,88.62
2022-09-28T18:13:17.612Z,88.51
2022-09-28T18:15:44.246Z,88.37
2022-09-28T18:18:12.497Z,88.95
2022-09-28T18:20:39.420Z,88.93
2022-09-28T18:23:05.786Z,88.83
2022-09-28T18:25:32.154Z,88.25
2022-09-28T18:27:59.941Z,88.19
2022-09-28T18:30:27.510Z,88.36
2022-09-28T18:32:54.144Z,88.25
2022-09-28T18:35:23.018Z,88.12
2022-09-28T18:37:50.235Z,87.71
2022-09-28T18:40:16.643Z,87.94
2022-09-28T18:42:43.093Z,87.39
2022-09-28T18:45:14.199Z,87.12
2022-09-28T18:47:40.649Z,87.28
2022-09-28T18:50:07.679Z,86.77
2022-09-28T18:52:38.431Z,86.46
2022-09-28T18:55:05.992Z,86.42
2022-09-28T18:57:35.269Z,86.73
2022-09-28T19:00:03.567Z,87.31
2022-09-28T19:02:30.189Z,87.53
2022-09-28T19:04:56.673Z,87.53
2022-09-28T19:07:23.212Z,87.62
2022-09-28T19:09:50.074Z,87.57
2022-09-28T19:12:16.983Z,87.73
2022-09-28T19:14:43.463Z,87.50
2022-09-28T19:17:10.157Z,87.74
2022-09-28T19:19:36.521Z,87.83
2022-09-28T19:22:02.969Z,87.86
2022-09-28T19:24:29.376Z,88.07
2022-09-28T19:26:56.520Z,88.38
2022-09-28T19:29:22.945Z,88.30
2022-09-28T19:31:49.789Z,88.17
2022-09-28T19:34:16.365Z,88.20
2022-09-28T19:36:43.128Z,87.79
2022-09-28T19:39:13.763Z,87.82
2022-09-28T19:41:44.700Z,87.57
2022-09-28T19:44:24.514Z,87.69
2022-09-28T19:46:56.172Z,87.98
2022-09-28T19:49:24.031Z,87.70
2022-09-28T19:52:11.696Z,87.91
2022-09-28T19:54:38.507Z,87.72
2022-09-28T19:57:07.604Z,87.52
2022-09-28T19:59:35.452Z,87.60
2022-09-28T20:02:02.072Z,87.52
2022-09-28T20:04:28.848Z,88.37
2022-09-28T20:06:55.230Z,88.68
2022-09-28T20:09:21.574Z,89.06
2022-09-28T20:11:48.501Z,88.01
2022-09-28T20:14:18.596Z,88.04
2022-09-28T20:16:46.183Z,88.54
2022-09-28T20:19:12.963Z,88.52
2022-09-28T20:21:39.326Z,87.98
2022-09-28T20:24:05.856Z,87.34
2022-09-28T20:26:37.569Z,87.78
2022-09-28T20:29:05.109Z,87.62
2022-09-28T20:31:31.549Z,87.45
2022-09-28T20:33:57.997Z,87.23
2022-09-28T20:36:25.009Z,87.67
2022-09-28T20:38:53.307Z,87.53
2022-09-28T20:41:22.065Z,87.45
2022-09-28T20:43:53.140Z,87.77
2022-09-28T20:46:21.180Z,88.26
2022-09-28T20:48:49.929Z,87.87
2022-09-28T20:51:18.574Z,88.18
2022-09-28T20:53:52.466Z,88.27
2022-09-28T20:56:23.866Z,88.35
2022-09-28T20:58:51.062Z,88.33
2022-09-28T21:01:29.837Z,88.12
2022-09-28T21:04:01.562Z,88.01
2022-09-28T21:06:30.236Z,88.02
2022-09-28T21:08:56.996Z,88.18
2022-09-28T21:11:25.330Z,88.21
2022-09-28T21:13:52.886Z,88.15
2022-09-28T21:16:19.257Z,88.77
2022-09-28T21:18:45.748Z,88.64
2022-09-28T21:21:14.383Z,88.58
2022-09-28T21:23:40.916Z,88.57
2022-09-28T21:26:10.217Z,88.40
2022-09-28T21:28:36.930Z,88.36
2022-09-28T21:31:05.628Z,88.69
2022-09-28T21:33:32.317Z,89.05
2022-09-28T21:36:03.766Z,88.95
2022-09-28T21:38:30.381Z,88.97
2022-09-28T21:40:57.956Z,88.50
2022-09-28T21:43:25.762Z,88.22
2022-09-28T21:45:53.076Z,88.08
2022-09-28T21:48:20.780Z,88.27
2022-09-28T21:51:05.024Z,88.61
2022-09-28T21:53:33.960Z,88.74
2022-09-28T21:56:01.365Z,89.11
2022-09-28T21:58:30.129Z,88.99
2022-09-28T22:01:08.154Z,88.82
2022-09-28T22:03:36.158Z,88.86
2022-09-28T22:06:03.927Z,88.83
2022-09-28T22:08:30.300Z,88.96
2022-09-28T22:11:31.117Z,89.04
2022-09-28T22:13:59.178Z,88.99
2022-09-28T22:16:28.108Z,88.83
2022-09-28T22:18:54.827Z,89.11
2022-09-28T22:21:26.709Z,88.73
2022-09-28T22:23:53.405Z,88.46
2022-09-28T22:26:23.374Z,88.23
2022-09-28T22:28:50.899Z,88.34
2022-09-28T22:31:18.738Z,88.43
2022-09-28T22:33:45.124Z,88.25
2022-09-28T22:36:11.771Z,88.38
2022-09-28T22:38:38.131Z,88.27
2022-09-28T22:41:04.504Z,88.04
2022-09-28T22:43:31.040Z,87.88
2022-09-28T22:46:18.740Z,87.72
2022-09-28T22:48:49.787Z,87.73
2022-09-28T22:51:16.827Z,88.10
2022-09-28T22:53:43.319Z,88.03
2022-09-28T22:56:12.598Z,87.76
2022-09-28T22:58:42.835Z,88.04
2022-09-28T23:01:17.781Z,87.69
2022-09-28T23:03:44.788Z,87.49
2022-09-28T23:06:12.831Z,87.83
2022-09-28T23:08:39.473Z,87.96
2022-09-28T23:11:06.314Z,87.68
2022-09-28T23:13:32.911Z,87.93
2022-09-28T23:16:04.897Z,87.67
2022-09-28T23:18:33.667Z,87.85
2022-09-28T23:21:02.220Z,87.95
2022-09-28T23:23:28.898Z,87.83
2022-09-28T23:25:55.864Z,87.93
2022-09-28T23:28:23.678Z,88.09
2022-09-28T23:30:50.115Z,88.15
2022-09-28T23:33:17.959Z,88.16
2022-09-28T23:35:44.856Z,88.36
2022-09-28T23:38:13.406Z,88.44
2022-09-28T23:40:40.907Z,88.63
2022-09-28T23:43:07.961Z,89.03
2022-09-28T23:45:34.395Z,88.78
2022-09-28T23:48:00.924Z,88.89
2022-09-28T23:50:27.367Z,89.15
2022-09-28T23:52:53.836Z,89.02
2022-09-28T23:55:20.298Z,89.22
2022-09-28T23:57:46.703Z,88.81
